sensor_id;sensor_type;location;lat;lon;timestamp;temperature;humidity
74153;DHT22;62505;46.070;14.492;2024-03-08T00:02:00;22.60;65.80
74153;DHT22;62505;46.070;14.492;2024-03-08T00:04:28;22.60;65.80
74153;DHT22;62505;46.070;14.492;2024-03-08T00:06:55;22.60;65.90
74153;DHT22;62505;46.070;14.492;2024-03-08T00:09:23;22.60;65.90
74153;DHT22;62505;46.070;14.492;2024-03-08T00:11:50;22.60;65.90
74153;DHT22;62505;46.070;14.492;2024-03-08T00:14:17;22.60;65.90
74153;DHT22;62505;46.070;14.492;2024-03-08T00:16:44;22.60;65.90
74153;DHT22;62505;46.070;14.492;2024-03-08T00:19:11;22.60;65.90
74153;DHT22;62505;46.070;14.492;2024-03-08T00:21:40;22.60;65.90
74153;DHT22;62505;46.070;14.492;2024-03-08T00:24:07;22.60;66.00
74153;DHT22;62505;46.070;14.492;2024-03-08T00:26:34;22.60;66.00
74153;DHT22;62505;46.070;14.492;2024-03-08T00:29:01;22.50;66.80
74153;DHT22;62505;46.070;14.492;2024-03-08T00:31:29;22.50;66.00
74153;DHT22;62505;46.070;14.492;2024-03-08T00:33:56;22.60;66.10
74153;DHT22;62505;46.070;14.492;2024-03-08T00:36:23;22.60;66.10
74153;DHT22;62505;46.070;14.492;2024-03-08T00:38:52;22.60;66.10
74153;DHT22;62505;46.070;14.492;2024-03-08T00:41:18;22.60;66.20
74153;DHT22;62505;46.070;14.492;2024-03-08T00:43:45;22.60;66.10
74153;DHT22;62505;46.070;14.492;2024-03-08T00:46:13;22.60;66.10
74153;DHT22;62505;46.070;14.492;2024-03-08T00:48:40;22.50;66.10
74153;DHT22;62505;46.070;14.492;2024-03-08T00:51:09;22.60;66.20
74153;DHT22;62505;46.070;14.492;2024-03-08T00:53:36;22.60;66.20
74153;DHT22;62505;46.070;14.492;2024-03-08T00:56:04;22.60;66.20
74153;DHT22;62505;46.070;14.492;2024-03-08T00:58:30;22.60;66.20
74153;DHT22;62505;46.070;14.492;2024-03-08T01:00:57;22.50;66.10
74153;DHT22;62505;46.070;14.492;2024-03-08T01:03:25;22.60;66.20
74153;DHT22;62505;46.070;14.492;2024-03-08T01:05:52;22.60;66.20
74153;DHT22;62505;46.070;14.492;2024-03-08T01:08:19;22.50;66.20
74153;DHT22;62505;46.070;14.492;2024-03-08T01:10:46;22.60;66.20
74153;DHT22;62505;46.070;14.492;2024-03-08T01:13:14;22.50;66.20
74153;DHT22;62505;46.070;14.492;2024-03-08T01:15:41;22.60;66.20
74153;DHT22;62505;46.070;14.492;2024-03-08T01:18:08;22.60;66.20
74153;DHT22;62505;46.070;14.492;2024-03-08T01:20:35;22.50;66.10
74153;DHT22;62505;46.070;14.492;2024-03-08T01:23:03;22.60;66.20
74153;DHT22;62505;46.070;14.492;2024-03-08T01:25:32;22.60;66.20
74153;DHT22;62505;46.070;14.492;2024-03-08T01:27:59;22.50;66.10
74153;DHT22;62505;46.070;14.492;2024-03-08T01:30:29;22.50;66.10
74153;DHT22;62505;46.070;14.492;2024-03-08T01:32:58;22.50;66.10
74153;DHT22;62505;46.070;14.492;2024-03-08T01:35:25;22.50;66.00
74153;DHT22;62505;46.070;14.492;2024-03-08T01:37:53;22.50;65.90
74153;DHT22;62505;46.070;14.492;2024-03-08T01:40:20;22.50;65.90
74153;DHT22;62505;46.070;14.492;2024-03-08T01:42:49;22.50;65.90
74153;DHT22;62505;46.070;14.492;2024-03-08T01:45:16;22.50;65.70
74153;DHT22;62505;46.070;14.492;2024-03-08T01:47:44;22.50;65.80
74153;DHT22;62505;46.070;14.492;2024-03-08T01:50:13;22.50;65.80
74153;DHT22;62505;46.070;14.492;2024-03-08T01:52:42;22.50;65.70
74153;DHT22;62505;46.070;14.492;2024-03-08T01:55:09;22.50;65.70
74153;DHT22;62505;46.070;14.492;2024-03-08T01:57:36;22.50;65.70
74153;DHT22;62505;46.070;14.492;2024-03-08T02:00:05;22.50;65.70
74153;DHT22;62505;46.070;14.492;2024-03-08T02:02:36;22.50;65.70
74153;DHT22;62505;46.070;14.492;2024-03-08T02:05:05;22.50;65.80
74153;DHT22;62505;46.070;14.492;2024-03-08T02:07:34;22.50;65.70
74153;DHT22;62505;46.070;14.492;2024-03-08T02:10:01;22.50;65.80
74153;DHT22;62505;46.070;14.492;2024-03-08T02:12:28;22.50;65.80
74153;DHT22;62505;46.070;14.492;2024-03-08T02:14:55;22.50;65.80
74153;DHT22;62505;46.070;14.492;2024-03-08T02:17:22;22.50;65.80
74153;DHT22;62505;46.070;14.492;2024-03-08T02:19:49;22.50;65.70
74153;DHT22;62505;46.070;14.492;2024-03-08T02:22:18;22.50;65.80
74153;DHT22;62505;46.070;14.492;2024-03-08T02:24:45;22.50;65.70
74153;DHT22;62505;46.070;14.492;2024-03-08T02:27:12;22.50;65.80
74153;DHT22;62505;46.070;14.492;2024-03-08T02:29:40;22.50;65.70
74153;DHT22;62505;46.070;14.492;2024-03-08T02:32:10;22.50;66.60
74153;DHT22;62505;46.070;14.492;2024-03-08T02:34:36;22.50;65.80
74153;DHT22;62505;46.070;14.492;2024-03-08T02:37:04;22.50;65.80
74153;DHT22;62505;46.070;14.492;2024-03-08T02:39:32;22.50;65.80
74153;DHT22;62505;46.070;14.492;2024-03-08T02:41:59;22.50;65.90
74153;DHT22;62505;46.070;14.492;2024-03-08T02:44:26;22.50;65.90
74153;DHT22;62505;46.070;14.492;2024-03-08T02:46:53;22.50;65.80
74153;DHT22;62505;46.070;14.492;2024-03-08T02:49:20;22.50;65.80
74153;DHT22;62505;46.070;14.492;2024-03-08T02:51:48;22.50;65.80
74153;DHT22;62505;46.070;14.492;2024-03-08T02:54:15;22.50;65.80
74153;DHT22;62505;46.070;14.492;2024-03-08T02:56:44;22.50;65.80
74153;DHT22;62505;46.070;14.492;2024-03-08T02:59:12;22.50;65.90
74153;DHT22;62505;46.070;14.492;2024-03-08T03:01:39;22.50;65.90
74153;DHT22;62505;46.070;14.492;2024-03-08T03:04:06;22.50;65.90
74153;DHT22;62505;46.070;14.492;2024-03-08T03:06:33;22.50;65.80
74153;DHT22;62505;46.070;14.492;2024-03-08T03:09:01;22.50;65.90
74153;DHT22;62505;46.070;14.492;2024-03-08T03:11:28;22.50;65.90
74153;DHT22;62505;46.070;14.492;2024-03-08T03:13:55;22.50;65.90
74153;DHT22;62505;46.070;14.492;2024-03-08T03:16:22;22.50;66.70
74153;DHT22;62505;46.070;14.492;2024-03-08T03:18:49;22.50;66.00
74153;DHT22;62505;46.070;14.492;2024-03-08T03:21:16;22.50;65.90
74153;DHT22;62505;46.070;14.492;2024-03-08T03:23:43;22.50;66.00
74153;DHT22;62505;46.070;14.492;2024-03-08T03:26:10;22.50;66.00
74153;DHT22;62505;46.070;14.492;2024-03-08T03:28:38;22.50;66.00
74153;DHT22;62505;46.070;14.492;2024-03-08T03:31:07;22.50;66.00
74153;DHT22;62505;46.070;14.492;2024-03-08T03:33:35;22.50;66.10
74153;DHT22;62505;46.070;14.492;2024-03-08T03:36:02;22.50;66.10
74153;DHT22;62505;46.070;14.492;2024-03-08T03:38:30;22.50;66.00
74153;DHT22;62505;46.070;14.492;2024-03-08T03:40:57;22.50;66.10
74153;DHT22;62505;46.070;14.492;2024-03-08T03:43:32;22.50;66.10
74153;DHT22;62505;46.070;14.492;2024-03-08T03:45:59;22.50;66.00
74153;DHT22;62505;46.070;14.492;2024-03-08T03:48:27;22.50;66.00
74153;DHT22;62505;46.070;14.492;2024-03-08T03:50:54;22.50;65.90
74153;DHT22;62505;46.070;14.492;2024-03-08T03:53:21;22.50;65.80
74153;DHT22;62505;46.070;14.492;2024-03-08T03:55:48;22.50;65.80
74153;DHT22;62505;46.070;14.492;2024-03-08T03:58:15;22.50;65.90
74153;DHT22;62505;46.070;14.492;2024-03-08T04:00:42;22.50;65.80
74153;DHT22;62505;46.070;14.492;2024-03-08T04:03:09;22.50;65.80
74153;DHT22;62505;46.070;14.492;2024-03-08T04:05:37;22.50;65.70
74153;DHT22;62505;46.070;14.492;2024-03-08T04:08:05;22.50;65.70
74153;DHT22;62505;46.070;14.492;2024-03-08T04:10:31;22.50;65.70
74153;DHT22;62505;46.070;14.492;2024-03-08T04:12:58;22.50;65.60
74153;DHT22;62505;46.070;14.492;2024-03-08T04:15:25;22.50;65.60
74153;DHT22;62505;46.070;14.492;2024-03-08T04:17:52;22.50;65.60
74153;DHT22;62505;46.070;14.492;2024-03-08T04:20:20;22.50;65.60
74153;DHT22;62505;46.070;14.492;2024-03-08T04:22:48;22.50;65.60
74153;DHT22;62505;46.070;14.492;2024-03-08T04:25:15;22.50;65.60
74153;DHT22;62505;46.070;14.492;2024-03-08T04:27:42;22.50;65.60
74153;DHT22;62505;46.070;14.492;2024-03-08T04:30:22;22.50;65.60
74153;DHT22;62505;46.070;14.492;2024-03-08T04:32:49;22.50;65.60
74153;DHT22;62505;46.070;14.492;2024-03-08T04:35:17;22.50;65.60
74153;DHT22;62505;46.070;14.492;2024-03-08T04:37:45;22.50;65.60
74153;DHT22;62505;46.070;14.492;2024-03-08T04:40:14;22.50;65.50
74153;DHT22;62505;46.070;14.492;2024-03-08T04:42:43;22.50;65.50
74153;DHT22;62505;46.070;14.492;2024-03-08T04:45:10;22.50;65.50
74153;DHT22;62505;46.070;14.492;2024-03-08T04:47:37;22.50;65.40
74153;DHT22;62505;46.070;14.492;2024-03-08T04:50:05;22.50;65.50
74153;DHT22;62505;46.070;14.492;2024-03-08T04:52:32;22.50;65.60
74153;DHT22;62505;46.070;14.492;2024-03-08T04:54:59;22.50;65.50
74153;DHT22;62505;46.070;14.492;2024-03-08T04:57:27;22.50;65.60
74153;DHT22;62505;46.070;14.492;2024-03-08T04:59:54;22.50;65.60
74153;DHT22;62505;46.070;14.492;2024-03-08T05:02:21;22.50;65.60
74153;DHT22;62505;46.070;14.492;2024-03-08T05:04:49;22.50;65.60
74153;DHT22;62505;46.070;14.492;2024-03-08T05:07:16;22.50;65.70
74153;DHT22;62505;46.070;14.492;2024-03-08T05:09:43;22.50;65.60
74153;DHT22;62505;46.070;14.492;2024-03-08T05:12:17;22.50;65.60
74153;DHT22;62505;46.070;14.492;2024-03-08T05:14:45;22.50;65.60
74153;DHT22;62505;46.070;14.492;2024-03-08T05:17:15;22.50;65.70
74153;DHT22;62505;46.070;14.492;2024-03-08T05:19:42;22.50;65.80
74153;DHT22;62505;46.070;14.492;2024-03-08T05:22:09;22.60;66.50
74153;DHT22;62505;46.070;14.492;2024-03-08T05:24:36;22.50;65.70
74153;DHT22;62505;46.070;14.492;2024-03-08T05:27:03;22.50;65.80
74153;DHT22;62505;46.070;14.492;2024-03-08T05:29:30;22.50;65.80
74153;DHT22;62505;46.070;14.492;2024-03-08T05:31:59;22.60;65.90
74153;DHT22;62505;46.070;14.492;2024-03-08T05:34:25;22.50;65.80
74153;DHT22;62505;46.070;14.492;2024-03-08T05:36:54;22.50;65.90
74153;DHT22;62505;46.070;14.492;2024-03-08T05:39:21;22.50;65.90
74153;DHT22;62505;46.070;14.492;2024-03-08T05:41:49;22.60;66.00
74153;DHT22;62505;46.070;14.492;2024-03-08T05:44:16;22.60;65.90
74153;DHT22;62505;46.070;14.492;2024-03-08T05:46:43;22.60;66.00
74153;DHT22;62505;46.070;14.492;2024-03-08T05:49:13;22.60;66.00
74153;DHT22;62505;46.070;14.492;2024-03-08T05:51:40;22.50;65.90
74153;DHT22;62505;46.070;14.492;2024-03-08T05:54:08;22.60;66.00
74153;DHT22;62505;46.070;14.492;2024-03-08T05:56:36;22.60;66.00
74153;DHT22;62505;46.070;14.492;2024-03-08T05:59:04;22.60;66.00
74153;DHT22;62505;46.070;14.492;2024-03-08T06:01:31;22.50;66.00
74153;DHT22;62505;46.070;14.492;2024-03-08T06:04:02;22.50;66.00
74153;DHT22;62505;46.070;14.492;2024-03-08T06:06:30;22.60;66.20
74153;DHT22;62505;46.070;14.492;2024-03-08T06:08:57;22.50;66.50
74153;DHT22;62505;46.070;14.492;2024-03-08T06:11:25;22.50;66.40
74153;DHT22;62505;46.070;14.492;2024-03-08T06:13:54;22.60;66.30
74153;DHT22;62505;46.070;14.492;2024-03-08T06:16:25;22.60;65.90
74153;DHT22;62505;46.070;14.492;2024-03-08T06:18:55;22.70;64.50
74153;DHT22;62505;46.070;14.492;2024-03-08T06:21:23;22.80;63.80
74153;DHT22;62505;46.070;14.492;2024-03-08T06:23:54;22.90;63.30
74153;DHT22;62505;46.070;14.492;2024-03-08T06:26:23;23.00;62.90
74153;DHT22;62505;46.070;14.492;2024-03-08T06:28:50;23.00;62.70
74153;DHT22;62505;46.070;14.492;2024-03-08T06:31:17;23.00;62.50
74153;DHT22;62505;46.070;14.492;2024-03-08T06:33:45;23.00;62.50
74153;DHT22;62505;46.070;14.492;2024-03-08T06:36:12;23.00;62.60
74153;DHT22;62505;46.070;14.492;2024-03-08T06:38:40;23.00;62.90
74153;DHT22;62505;46.070;14.492;2024-03-08T06:41:09;23.00;63.10
74153;DHT22;62505;46.070;14.492;2024-03-08T06:43:41;23.00;63.70
74153;DHT22;62505;46.070;14.492;2024-03-08T06:46:08;23.00;63.50
74153;DHT22;62505;46.070;14.492;2024-03-08T06:48:35;23.00;63.70
74153;DHT22;62505;46.070;14.492;2024-03-08T06:51:03;23.00;64.50
74153;DHT22;62505;46.070;14.492;2024-03-08T06:53:30;23.00;63.90
74153;DHT22;62505;46.070;14.492;2024-03-08T06:55:57;22.90;64.00
74153;DHT22;62505;46.070;14.492;2024-03-08T06:58:26;22.90;64.00
74153;DHT22;62505;46.070;14.492;2024-03-08T07:00:53;22.90;64.20
74153;DHT22;62505;46.070;14.492;2024-03-08T07:03:24;22.90;64.30
74153;DHT22;62505;46.070;14.492;2024-03-08T07:05:52;22.90;64.40
74153;DHT22;62505;46.070;14.492;2024-03-08T07:08:19;22.90;64.50
74153;DHT22;62505;46.070;14.492;2024-03-08T07:10:48;22.90;64.60
74153;DHT22;62505;46.070;14.492;2024-03-08T07:13:15;22.80;64.50
74153;DHT22;62505;46.070;14.492;2024-03-08T07:15:44;22.80;64.80
74153;DHT22;62505;46.070;14.492;2024-03-08T07:18:12;22.80;64.80
74153;DHT22;62505;46.070;14.492;2024-03-08T07:20:40;22.80;65.00
74153;DHT22;62505;46.070;14.492;2024-03-08T07:23:08;22.80;65.00
74153;DHT22;62505;46.070;14.492;2024-03-08T07:25:36;22.80;65.00
74153;DHT22;62505;46.070;14.492;2024-03-08T07:28:04;22.80;65.10
74153;DHT22;62505;46.070;14.492;2024-03-08T07:30:33;22.80;65.10
74153;DHT22;62505;46.070;14.492;2024-03-08T07:33:21;22.80;64.90
74153;DHT22;62505;46.070;14.492;2024-03-08T07:35:48;22.80;65.10
74153;DHT22;62505;46.070;14.492;2024-03-08T07:38:16;22.80;65.10
74153;DHT22;62505;46.070;14.492;2024-03-08T07:40:43;22.80;65.30
74153;DHT22;62505;46.070;14.492;2024-03-08T07:43:11;22.80;65.20
74153;DHT22;62505;46.070;14.492;2024-03-08T07:45:38;22.80;65.00
74153;DHT22;62505;46.070;14.492;2024-03-08T07:48:06;22.80;65.30
74153;DHT22;62505;46.070;14.492;2024-03-08T07:50:37;22.80;65.30
74153;DHT22;62505;46.070;14.492;2024-03-08T07:53:04;22.80;65.20
74153;DHT22;62505;46.070;14.492;2024-03-08T07:55:32;22.80;65.60
74153;DHT22;62505;46.070;14.492;2024-03-08T07:58:00;22.80;65.30
74153;DHT22;62505;46.070;14.492;2024-03-08T08:00:28;22.80;65.30
74153;DHT22;62505;46.070;14.492;2024-03-08T08:02:57;22.80;65.30
74153;DHT22;62505;46.070;14.492;2024-03-08T08:05:24;22.80;65.30
74153;DHT22;62505;46.070;14.492;2024-03-08T08:07:53;22.80;65.40
74153;DHT22;62505;46.070;14.492;2024-03-08T08:10:20;22.80;65.40
74153;DHT22;62505;46.070;14.492;2024-03-08T08:12:48;22.80;65.30
74153;DHT22;62505;46.070;14.492;2024-03-08T08:15:15;22.90;65.00
74153;DHT22;62505;46.070;14.492;2024-03-08T08:17:43;23.00;64.60
74153;DHT22;62505;46.070;14.492;2024-03-08T08:20:11;23.10;64.20
74153;DHT22;62505;46.070;14.492;2024-03-08T08:22:38;23.10;63.80
74153;DHT22;62505;46.070;14.492;2024-03-08T08:25:08;23.10;64.60
74153;DHT22;62505;46.070;14.492;2024-03-08T08:27:38;23.10;63.50
74153;DHT22;62505;46.070;14.492;2024-03-08T08:30:06;23.10;63.30
74153;DHT22;62505;46.070;14.492;2024-03-08T08:32:34;23.10;63.10
74153;DHT22;62505;46.070;14.492;2024-03-08T08:35:01;23.10;63.10
74153;DHT22;62505;46.070;14.492;2024-03-08T08:37:30;23.10;63.00
74153;DHT22;62505;46.070;14.492;2024-03-08T08:39:57;23.10;63.00
74153;DHT22;62505;46.070;14.492;2024-03-08T08:42:25;23.00;63.00
74153;DHT22;62505;46.070;14.492;2024-03-08T08:44:54;23.00;63.10
74153;DHT22;62505;46.070;14.492;2024-03-08T08:47:23;23.00;63.10
74153;DHT22;62505;46.070;14.492;2024-03-08T08:49:50;23.00;63.20
74153;DHT22;62505;46.070;14.492;2024-03-08T08:52:17;23.00;63.40
74153;DHT22;62505;46.070;14.492;2024-03-08T08:54:44;22.90;63.40
74153;DHT22;62505;46.070;14.492;2024-03-08T08:57:12;22.90;63.50
74153;DHT22;62505;46.070;14.492;2024-03-08T08:59:40;22.90;63.70
74153;DHT22;62505;46.070;14.492;2024-03-08T09:02:07;22.90;63.50
74153;DHT22;62505;46.070;14.492;2024-03-08T09:04:35;22.90;63.70
74153;DHT22;62505;46.070;14.492;2024-03-08T09:07:02;22.80;63.60
74153;DHT22;62505;46.070;14.492;2024-03-08T09:09:32;22.90;63.70
74153;DHT22;62505;46.070;14.492;2024-03-08T09:11:59;22.90;63.80
74153;DHT22;62505;46.070;14.492;2024-03-08T09:14:26;22.80;63.70
74153;DHT22;62505;46.070;14.492;2024-03-08T09:16:55;22.80;63.80
74153;DHT22;62505;46.070;14.492;2024-03-08T09:19:21;22.80;63.80
74153;DHT22;62505;46.070;14.492;2024-03-08T09:21:51;22.80;63.90
74153;DHT22;62505;46.070;14.492;2024-03-08T09:24:18;22.80;63.90
74153;DHT22;62505;46.070;14.492;2024-03-08T09:26:46;22.80;64.20
74153;DHT22;62505;46.070;14.492;2024-03-08T09:29:13;22.80;64.30
74153;DHT22;62505;46.070;14.492;2024-03-08T09:31:40;22.90;64.40
74153;DHT22;62505;46.070;14.492;2024-03-08T09:34:08;22.80;64.40
74153;DHT22;62505;46.070;14.492;2024-03-08T09:36:35;22.80;64.50
74153;DHT22;62505;46.070;14.492;2024-03-08T09:39:02;22.80;64.40
74153;DHT22;62505;46.070;14.492;2024-03-08T09:41:33;22.80;64.60
74153;DHT22;62505;46.070;14.492;2024-03-08T09:44:00;22.90;65.50
74153;DHT22;62505;46.070;14.492;2024-03-08T09:46:27;22.80;64.60
74153;DHT22;62505;46.070;14.492;2024-03-08T09:48:54;22.80;65.50
74153;DHT22;62505;46.070;14.492;2024-03-08T09:51:27;22.80;64.70
74153;DHT22;62505;46.070;14.492;2024-03-08T09:53:54;22.80;64.90
74153;DHT22;62505;46.070;14.492;2024-03-08T09:56:22;22.80;64.80
74153;DHT22;62505;46.070;14.492;2024-03-08T09:58:50;22.80;64.80
74153;DHT22;62505;46.070;14.492;2024-03-08T10:01:45;22.80;64.80
74153;DHT22;62505;46.070;14.492;2024-03-08T10:04:12;22.80;64.80
74153;DHT22;62505;46.070;14.492;2024-03-08T10:06:41;22.80;64.90
74153;DHT22;62505;46.070;14.492;2024-03-08T10:09:09;22.80;64.80
74153;DHT22;62505;46.070;14.492;2024-03-08T10:11:37;22.80;64.90
74153;DHT22;62505;46.070;14.492;2024-03-08T10:14:05;22.80;64.90
74153;DHT22;62505;46.070;14.492;2024-03-08T10:16:33;22.80;64.90
74153;DHT22;62505;46.070;14.492;2024-03-08T10:19:00;22.80;64.80
74153;DHT22;62505;46.070;14.492;2024-03-08T10:21:31;22.80;64.80
74153;DHT22;62505;46.070;14.492;2024-03-08T10:24:02;22.80;64.80
74153;DHT22;62505;46.070;14.492;2024-03-08T10:26:30;22.90;64.40
74153;DHT22;62505;46.070;14.492;2024-03-08T10:28:57;23.00;64.00
74153;DHT22;62505;46.070;14.492;2024-03-08T10:31:24;23.10;63.70
74153;DHT22;62505;46.070;14.492;2024-03-08T10:33:51;23.10;63.30
74153;DHT22;62505;46.070;14.492;2024-03-08T10:36:18;23.20;63.20
74153;DHT22;62505;46.070;14.492;2024-03-08T10:38:45;23.20;63.10
74153;DHT22;62505;46.070;14.492;2024-03-08T10:41:15;23.20;63.00
74153;DHT22;62505;46.070;14.492;2024-03-08T10:44:05;23.10;62.80
74153;DHT22;62505;46.070;14.492;2024-03-08T10:46:45;23.10;62.90
74153;DHT22;62505;46.070;14.492;2024-03-08T10:49:17;23.20;63.10
74153;DHT22;62505;46.070;14.492;2024-03-08T10:51:49;23.10;63.20
74153;DHT22;62505;46.070;14.492;2024-03-08T10:54:19;23.20;63.40
74153;DHT22;62505;46.070;14.492;2024-03-08T10:56:48;23.10;63.50
74153;DHT22;62505;46.070;14.492;2024-03-08T10:59:17;23.10;63.70
74153;DHT22;62505;46.070;14.492;2024-03-08T11:01:45;23.10;63.80
74153;DHT22;62505;46.070;14.492;2024-03-08T11:04:12;23.10;64.00
74153;DHT22;62505;46.070;14.492;2024-03-08T11:06:42;23.10;64.00
74153;DHT22;62505;46.070;14.492;2024-03-08T11:09:27;23.10;64.10
74153;DHT22;62505;46.070;14.492;2024-03-08T11:12:23;23.10;64.40
74153;DHT22;62505;46.070;14.492;2024-03-08T11:14:57;23.10;64.40
74153;DHT22;62505;46.070;14.492;2024-03-08T11:17:45;23.10;64.60
74153;DHT22;62505;46.070;14.492;2024-03-08T11:20:13;23.10;64.80
74153;DHT22;62505;46.070;14.492;2024-03-08T11:22:48;23.10;65.10
74153;DHT22;62505;46.070;14.492;2024-03-08T11:25:36;23.10;64.80
74153;DHT22;62505;46.070;14.492;2024-03-08T11:28:15;23.00;58.40
74153;DHT22;62505;46.070;14.492;2024-03-08T11:30:47;22.90;59.90
74153;DHT22;62505;46.070;14.492;2024-03-08T11:33:35;22.90;60.70
74153;DHT22;62505;46.070;14.492;2024-03-08T11:36:03;22.90;61.40
74153;DHT22;62505;46.070;14.492;2024-03-08T11:38:40;22.90;61.10
74153;DHT22;62505;46.070;14.492;2024-03-08T11:41:07;22.90;61.60
74153;DHT22;62505;46.070;14.492;2024-03-08T11:43:35;22.90;61.50
74153;DHT22;62505;46.070;14.492;2024-03-08T11:46:08;22.90;61.70
74153;DHT22;62505;46.070;14.492;2024-03-08T11:48:35;22.90;61.90
74153;DHT22;62505;46.070;14.492;2024-03-08T11:51:02;22.90;62.10
74153;DHT22;62505;46.070;14.492;2024-03-08T11:53:30;22.90;62.20
74153;DHT22;62505;46.070;14.492;2024-03-08T11:56:06;22.90;62.30
74153;DHT22;62505;46.070;14.492;2024-03-08T11:58:35;22.90;62.40
74153;DHT22;62505;46.070;14.492;2024-03-08T12:01:04;22.90;62.60
74153;DHT22;62505;46.070;14.492;2024-03-08T12:03:31;22.90;62.40
74153;DHT22;62505;46.070;14.492;2024-03-08T12:06:00;22.90;62.60
74153;DHT22;62505;46.070;14.492;2024-03-08T12:08:27;22.90;62.70
74153;DHT22;62505;46.070;14.492;2024-03-08T12:10:55;22.90;62.80
74153;DHT22;62505;46.070;14.492;2024-03-08T12:13:25;22.90;62.80
74153;DHT22;62505;46.070;14.492;2024-03-08T12:15:56;22.90;62.90
74153;DHT22;62505;46.070;14.492;2024-03-08T12:18:25;22.90;62.90
74153;DHT22;62505;46.070;14.492;2024-03-08T12:21:04;22.90;62.80
74153;DHT22;62505;46.070;14.492;2024-03-08T12:23:33;22.90;62.90
74153;DHT22;62505;46.070;14.492;2024-03-08T12:26:09;22.80;62.90
74153;DHT22;62505;46.070;14.492;2024-03-08T12:28:38;22.80;63.00
74153;DHT22;62505;46.070;14.492;2024-03-08T12:31:07;22.80;63.10
74153;DHT22;62505;46.070;14.492;2024-03-08T12:33:36;22.80;63.10
74153;DHT22;62505;46.070;14.492;2024-03-08T12:36:03;22.80;63.10
74153;DHT22;62505;46.070;14.492;2024-03-08T12:38:33;22.80;63.10
74153;DHT22;62505;46.070;14.492;2024-03-08T12:41:01;22.80;61.70
74153;DHT22;62505;46.070;14.492;2024-03-08T12:43:28;22.70;58.70
74153;DHT22;62505;46.070;14.492;2024-03-08T12:45:57;22.70;59.80
74153;DHT22;62505;46.070;14.492;2024-03-08T12:48:25;22.70;60.30
74153;DHT22;62505;46.070;14.492;2024-03-08T12:50:52;22.80;60.30
74153;DHT22;62505;46.070;14.492;2024-03-08T12:53:20;22.80;60.50
74153;DHT22;62505;46.070;14.492;2024-03-08T12:55:48;22.80;60.60
74153;DHT22;62505;46.070;14.492;2024-03-08T12:58:16;22.80;61.10
74153;DHT22;62505;46.070;14.492;2024-03-08T13:00:43;22.80;61.30
74153;DHT22;62505;46.070;14.492;2024-03-08T13:03:10;22.80;61.80
74153;DHT22;62505;46.070;14.492;2024-03-08T13:05:38;22.90;62.60
74153;DHT22;62505;46.070;14.492;2024-03-08T13:08:08;22.80;62.80
74153;DHT22;62505;46.070;14.492;2024-03-08T13:10:38;22.90;64.10
74153;DHT22;62505;46.070;14.492;2024-03-08T13:13:05;22.90;64.30
74153;DHT22;62505;46.070;14.492;2024-03-08T13:15:32;22.90;64.20
74153;DHT22;62505;46.070;14.492;2024-03-08T13:17:59;22.90;63.90
74153;DHT22;62505;46.070;14.492;2024-03-08T13:20:26;22.90;63.70
74153;DHT22;62505;46.070;14.492;2024-03-08T13:22:55;22.90;64.60
74153;DHT22;62505;46.070;14.492;2024-03-08T13:25:24;22.90;65.20
74153;DHT22;62505;46.070;14.492;2024-03-08T13:27:52;22.90;65.00
74153;DHT22;62505;46.070;14.492;2024-03-08T13:30:19;22.90;65.10
74153;DHT22;62505;46.070;14.492;2024-03-08T13:32:51;22.90;65.80
74153;DHT22;62505;46.070;14.492;2024-03-08T13:35:19;23.00;65.90
74153;DHT22;62505;46.070;14.492;2024-03-08T13:37:51;23.00;65.90
74153;DHT22;62505;46.070;14.492;2024-03-08T13:40:19;23.00;66.70
74153;DHT22;62505;46.070;14.492;2024-03-08T13:42:46;23.00;67.20
74153;DHT22;62505;46.070;14.492;2024-03-08T13:45:15;23.00;66.40
74153;DHT22;62505;46.070;14.492;2024-03-08T13:47:43;23.00;64.90
74153;DHT22;62505;46.070;14.492;2024-03-08T13:50:12;22.90;64.70
74153;DHT22;62505;46.070;14.492;2024-03-08T13:52:39;22.90;64.60
74153;DHT22;62505;46.070;14.492;2024-03-08T13:55:07;22.90;64.50
74153;DHT22;62505;46.070;14.492;2024-03-08T13:57:35;22.90;64.40
74153;DHT22;62505;46.070;14.492;2024-03-08T14:00:03;22.90;64.30
74153;DHT22;62505;46.070;14.492;2024-03-08T14:02:32;22.80;64.30
74153;DHT22;62505;46.070;14.492;2024-03-08T14:04:59;22.80;65.00
74153;DHT22;62505;46.070;14.492;2024-03-08T14:07:27;22.80;64.30
74153;DHT22;62505;46.070;14.492;2024-03-08T14:09:55;22.80;64.20
74153;DHT22;62505;46.070;14.492;2024-03-08T14:12:22;22.80;64.20
74153;DHT22;62505;46.070;14.492;2024-03-08T14:14:53;22.80;64.20
74153;DHT22;62505;46.070;14.492;2024-03-08T14:17:20;22.80;64.10
74153;DHT22;62505;46.070;14.492;2024-03-08T14:19:48;22.80;64.00
74153;DHT22;62505;46.070;14.492;2024-03-08T14:22:15;22.80;64.10
74153;DHT22;62505;46.070;14.492;2024-03-08T14:24:42;22.80;64.00
74153;DHT22;62505;46.070;14.492;2024-03-08T14:27:10;22.80;64.00
74153;DHT22;62505;46.070;14.492;2024-03-08T14:29:38;22.80;64.00
74153;DHT22;62505;46.070;14.492;2024-03-08T14:32:06;22.80;63.90
74153;DHT22;62505;46.070;14.492;2024-03-08T14:34:34;22.80;64.00
74153;DHT22;62505;46.070;14.492;2024-03-08T14:37:01;22.70;63.90
74153;DHT22;62505;46.070;14.492;2024-03-08T14:39:31;22.80;64.00
74153;DHT22;62505;46.070;14.492;2024-03-08T14:41:59;22.80;64.00
74153;DHT22;62505;46.070;14.492;2024-03-08T14:44:27;22.80;64.00
74153;DHT22;62505;46.070;14.492;2024-03-08T14:46:55;22.80;64.00
74153;DHT22;62505;46.070;14.492;2024-03-08T14:49:25;22.80;64.00
74153;DHT22;62505;46.070;14.492;2024-03-08T14:51:54;22.80;63.90
74153;DHT22;62505;46.070;14.492;2024-03-08T14:54:23;22.80;63.90
74153;DHT22;62505;46.070;14.492;2024-03-08T14:56:51;22.80;63.90
74153;DHT22;62505;46.070;14.492;2024-03-08T14:59:18;22.80;64.00
74153;DHT22;62505;46.070;14.492;2024-03-08T15:01:45;22.70;63.90
74153;DHT22;62505;46.070;14.492;2024-03-08T15:04:12;22.80;63.90
74153;DHT22;62505;46.070;14.492;2024-03-08T15:06:41;22.80;63.90
74153;DHT22;62505;46.070;14.492;2024-03-08T15:09:08;22.70;63.90
74153;DHT22;62505;46.070;14.492;2024-03-08T15:11:45;22.70;63.90
74153;DHT22;62505;46.070;14.492;2024-03-08T15:14:14;22.70;63.90
74153;DHT22;62505;46.070;14.492;2024-03-08T15:16:44;22.70;63.90
74153;DHT22;62505;46.070;14.492;2024-03-08T15:19:13;22.70;63.90
74153;DHT22;62505;46.070;14.492;2024-03-08T15:21:42;22.70;63.90
74153;DHT22;62505;46.070;14.492;2024-03-08T15:24:11;22.70;63.90